Time;durP1;ratioP1;P1;durP2;ratioP2;P2;SDS_P1;SDS_P2;PMS_P1;PMS_P2;Temp;Humidity;BMP_temperature;BMP_pressure;BME280_temperature;BME280_humidity;BME280_pressure;Samples;Min_cycle;Max_cycle;Signal;HPM_P1;HPM_P2
2021/01/27 00:00:15;;;;;;;1.90;1.67;;;;;;;;;;5130429;28;20498;-67
2021/01/27 00:02:41;;;;;;;1.27;1.17;;;;;;;;;;5131183;28;20029;-67
2021/01/27 00:05:10;;;;;;;1.25;1.15;;;;;;;;;;5130075;27;20147;-67
2021/01/27 00:07:36;;;;;;;2.67;2.22;;;;;;;;;;5131075;28;20059;-67
2021/01/27 00:10:02;;;;;;;1.70;1.55;;;;;;;;;;5130143;28;20038;-67
2021/01/27 00:12:28;;;;;;;1.58;1.48;;;;;;;;;;5131310;28;20033;-67
2021/01/27 00:14:54;;;;;;;2.08;1.88;;;;;;;;;;5131880;28;20056;-67
2021/01/27 00:17:20;;;;;;;2.65;1.83;;;;;;;;;;5129983;28;20404;-67
2021/01/27 00:19:46;;;;;;;2.90;1.80;;;;;;;;;;5130372;27;20541;-67
2021/01/27 00:22:12;;;;;;;1.70;1.60;;;;;;;;;;5133589;27;20439;-67
2021/01/27 00:24:39;;;;;;;2.70;2.33;;;;;;;;;;5135713;27;20050;-67
2021/01/27 00:27:05;;;;;;;3.42;2.10;;;;;;;;;;5134440;27;20028;-67
2021/01/27 00:29:31;;;;;;;3.58;2.05;;;;;;;;;;5134555;27;20126;-67
2021/01/27 00:31:57;;;;;;;3.28;2.05;;;;;;;;;;5134756;27;20027;-67
2021/01/27 00:34:23;;;;;;;2.00;1.83;;;;;;;;;;5134902;27;20031;-67
2021/01/27 00:36:52;;;;;;;1.92;1.65;;;;;;;;;;5133566;27;20031;-67
2021/01/27 00:39:18;;;;;;;3.33;2.20;;;;;;;;;;5112817;28;20469;-67
2021/01/27 00:41:44;;;;;;;2.65;1.77;;;;;;;;;;5114541;28;20024;-67
2021/01/27 00:44:10;;;;;;;1.40;1.25;;;;;;;;;;5113738;28;20442;-67
2021/01/27 00:46:37;;;;;;;1.50;1.27;;;;;;;;;;5114755;28;20028;-67
2021/01/27 00:49:03;;;;;;;2.28;1.98;;;;;;;;;;5113036;28;20063;-67
2021/01/27 00:51:29;;;;;;;5.43;2.78;;;;;;;;;;5113751;28;20048;-67
2021/01/27 00:53:56;;;;;;;3.75;2.67;;;;;;;;;;5114189;28;20030;-67
2021/01/27 00:56:22;;;;;;;2.30;2.10;;;;;;;;;;5113841;28;20470;-67
2021/01/27 00:58:49;;;;;;;2.00;1.75;;;;;;;;;;5113364;28;20024;-67
2021/01/27 01:01:15;;;;;;;3.78;2.33;;;;;;;;;;5113361;28;20023;-67
2021/01/27 01:03:41;;;;;;;2.33;2.05;;;;;;;;;;5114212;28;20081;-67
2021/01/27 01:06:07;;;;;;;3.25;1.85;;;;;;;;;;5129371;27;20054;-67
2021/01/27 01:08:33;;;;;;;3.35;2.45;;;;;;;;;;5133958;27;20026;-67
2021/01/27 01:11:00;;;;;;;2.50;2.15;;;;;;;;;;5120112;27;20024;-67
2021/01/27 01:13:28;;;;;;;2.42;2.22;;;;;;;;;;5113796;28;20036;-67
2021/01/27 01:15:54;;;;;;;2.13;1.70;;;;;;;;;;5114028;28;20023;-67
2021/01/27 01:18:20;;;;;;;2.58;2.00;;;;;;;;;;5112922;28;20055;-67
2021/01/27 01:20:47;;;;;;;2.00;1.90;;;;;;;;;;5113327;28;20020;-67
2021/01/27 01:23:14;;;;;;;2.65;1.90;;;;;;;;;;5113169;28;20110;-67
2021/01/27 01:25:40;;;;;;;2.95;1.98;;;;;;;;;;5113911;28;20026;-67
2021/01/27 01:28:07;;;;;;;2.40;2.03;;;;;;;;;;5112690;28;20119;-67
2021/01/27 01:30:35;;;;;;;2.13;1.80;;;;;;;;;;5113327;28;20035;-67
2021/01/27 01:33:20;;;;;;;2.75;2.00;;;;;;;;;;5113032;28;20080;-67
2021/01/27 01:35:47;;;;;;;2.65;2.08;;;;;;;;;;5113634;28;20031;-67
2021/01/27 01:38:13;;;;;;;2.80;2.47;;;;;;;;;;5112587;28;20165;-67
2021/01/27 01:40:41;;;;;;;2.17;1.75;;;;;;;;;;5113041;28;20019;-67
2021/01/27 01:43:12;;;;;;;4.10;2.67;;;;;;;;;;5112607;28;20023;-67
2021/01/27 01:45:40;;;;;;;1.83;1.55;;;;;;;;;;5113346;28;20047;-67
2021/01/27 01:48:15;;;;;;;2.08;1.98;;;;;;;;;;5112540;28;20110;-67
2021/01/27 01:50:42;;;;;;;3.42;2.22;;;;;;;;;;5112806;28;20545;-67
2021/01/27 01:53:09;;;;;;;2.55;1.90;;;;;;;;;;5120166;27;20460;-67
2021/01/27 01:55:35;;;;;;;4.28;2.63;;;;;;;;;;5133979;27;20023;-67
2021/01/27 01:58:02;;;;;;;3.35;2.10;;;;;;;;;;5133116;27;20061;-67
2021/01/27 02:00:29;;;;;;;2.67;2.13;;;;;;;;;;5132865;27;20026;-67
2021/01/27 02:02:55;;;;;;;2.70;2.22;;;;;;;;;;5133470;27;20045;-67
2021/01/27 02:05:23;;;;;;;1.83;1.45;;;;;;;;;;5132994;27;20051;-67
2021/01/27 02:07:49;;;;;;;3.25;2.60;;;;;;;;;;5132875;27;20023;-68
2021/01/27 02:10:16;;;;;;;2.40;2.05;;;;;;;;;;5131947;27;20114;-67
2021/01/27 02:12:51;;;;;;;3.10;2.15;;;;;;;;;;5133086;27;20049;-67
2021/01/27 02:15:17;;;;;;;3.45;2.13;;;;;;;;;;5132715;27;20035;-67
2021/01/27 02:17:55;;;;;;;2.50;1.83;;;;;;;;;;5133222;27;20104;-67
2021/01/27 02:20:39;;;;;;;1.38;1.27;;;;;;;;;;5131914;27;20035;-67
2021/01/27 02:23:24;;;;;;;5.55;2.20;;;;;;;;;;5132182;27;20033;-67
2021/01/27 02:26:13;;;;;;;3.05;2.45;;;;;;;;;;5133221;27;20046;-67
2021/01/27 02:28:51;;;;;;;2.90;2.58;;;;;;;;;;5119266;27;20118;-67
2021/01/27 02:31:36;;;;;;;2.60;1.73;;;;;;;;;;5131851;27;20038;-67
2021/01/27 02:34:12;;;;;;;3.45;2.42;;;;;;;;;;5132595;27;20038;-67
2021/01/27 02:36:44;;;;;;;2.20;2.00;;;;;;;;;;5132719;27;20019;-67
2021/01/27 02:39:22;;;;;;;2.00;1.70;;;;;;;;;;5090024;28;20025;-67
2021/01/27 02:42:13;;;;;;;3.10;2.58;;;;;;;;;;5091798;28;20024;-67
2021/01/27 02:44:50;;;;;;;4.80;2.53;;;;;;;;;;5090189;28;20483;-67
2021/01/27 02:47:24;;;;;;;1.80;1.70;;;;;;;;;;5090746;28;20035;-67
2021/01/27 02:50:04;;;;;;;2.47;1.48;;;;;;;;;;5072911;28;20524;-67
2021/01/27 02:52:49;;;;;;;2.33;2.08;;;;;;;;;;5091024;28;20386;-67
2021/01/27 02:55:20;;;;;;;2.47;2.28;;;;;;;;;;5091039;28;20077;-67
2021/01/27 02:57:53;;;;;;;2.60;1.75;;;;;;;;;;5091125;28;20024;-67
2021/01/27 03:00:39;;;;;;;2.03;1.80;;;;;;;;;;5090832;28;20131;-67
2021/01/27 03:03:07;;;;;;;2.33;1.77;;;;;;;;;;5089786;28;20065;-67
2021/01/27 03:05:36;;;;;;;2.22;2.00;;;;;;;;;;5091041;27;20048;-67
2021/01/27 03:08:04;;;;;;;3.42;1.80;;;;;;;;;;5090118;28;20097;-67
2021/01/27 03:10:41;;;;;;;2.80;2.03;;;;;;;;;;5098871;28;20023;-67
2021/01/27 03:13:08;;;;;;;1.95;1.80;;;;;;;;;;5110385;28;20122;-67
2021/01/27 03:15:36;;;;;;;3.33;2.22;;;;;;;;;;5111448;28;20438;-67
2021/01/27 03:18:03;;;;;;;2.38;1.40;;;;;;;;;;5110513;28;20104;-67
2021/01/27 03:20:32;;;;;;;2.15;1.48;;;;;;;;;;5111242;28;20038;-67
2021/01/27 03:23:12;;;;;;;2.58;1.55;;;;;;;;;;5110632;28;20024;-67
2021/01/27 03:25:42;;;;;;;2.33;1.98;;;;;;;;;;5111577;28;20033;-67
2021/01/27 03:28:08;;;;;;;2.03;1.58;;;;;;;;;;5110161;28;20352;-67
2021/01/27 03:30:35;;;;;;;2.08;1.15;;;;;;;;;;5111157;28;20118;-67
2021/01/27 03:33:06;;;;;;;1.95;1.73;;;;;;;;;;5110598;28;20070;-67
2021/01/27 03:35:40;;;;;;;1.60;1.50;;;;;;;;;;5111095;28;20034;-67
2021/01/27 03:38:23;;;;;;;1.45;1.35;;;;;;;;;;5110138;28;20024;-67
2021/01/27 03:40:51;;;;;;;2.17;1.65;;;;;;;;;;5110664;28;20020;-67
2021/01/27 03:43:23;;;;;;;1.95;1.23;;;;;;;;;;5110568;28;20036;-67
2021/01/27 03:45:50;;;;;;;1.13;1.00;;;;;;;;;;5110577;28;20028;-67
2021/01/27 03:48:23;;;;;;;2.42;1.42;;;;;;;;;;5110336;28;20031;-67
2021/01/27 03:50:52;;;;;;;1.85;1.13;;;;;;;;;;5110783;28;20517;-67
2021/01/27 03:53:18;;;;;;;2.50;1.52;;;;;;;;;;5110287;28;20411;-67
2021/01/27 03:56:03;;;;;;;1.27;1.13;;;;;;;;;;5110928;28;20080;-67
2021/01/27 03:58:34;;;;;;;2.38;1.30;;;;;;;;;;5110809;28;20102;-67
2021/01/27 04:01:02;;;;;;;2.90;1.50;;;;;;;;;;5110143;28;20083;-67
2021/01/27 04:03:29;;;;;;;3.15;1.52;;;;;;;;;;5092789;28;20028;-67
2021/01/27 04:05:55;;;;;;;2.35;1.17;;;;;;;;;;5124849;27;20047;-67
2021/01/27 04:08:21;;;;;;;1.58;1.17;;;;;;;;;;5130593;28;20084;-67
2021/01/27 04:10:47;;;;;;;1.13;1.00;;;;;;;;;;5130531;28;20472;-67
2021/01/27 04:13:14;;;;;;;1.65;1.48;;;;;;;;;;5130441;28;20027;-67
2021/01/27 04:15:40;;;;;;;1.08;0.90;;;;;;;;;;5130875;28;20024;-67
2021/01/27 04:18:06;;;;;;;1.98;1.20;;;;;;;;;;5130155;28;20388;-67
2021/01/27 04:20:32;;;;;;;2.17;1.20;;;;;;;;;;5130724;28;20377;-67
2021/01/27 04:22:58;;;;;;;1.92;1.58;;;;;;;;;;5130648;28;20024;-68
2021/01/27 04:25:24;;;;;;;1.20;1.10;;;;;;;;;;5130423;28;20024;-67
2021/01/27 04:27:51;;;;;;;1.70;1.20;;;;;;;;;;5131307;28;20382;-67
2021/01/27 04:30:19;;;;;;;2.97;1.08;;;;;;;;;;5130253;28;20039;-67
2021/01/27 04:32:45;;;;;;;1.70;1.00;;;;;;;;;;5130847;28;20027;-67
2021/01/27 04:35:12;;;;;;;1.88;1.00;;;;;;;;;;5130323;28;20052;-67
2021/01/27 04:37:38;;;;;;;1.67;0.95;;;;;;;;;;5130417;28;20059;-67
2021/01/27 04:40:09;;;;;;;1.17;0.93;;;;;;;;;;5129981;28;20034;-67
2021/01/27 04:42:35;;;;;;;1.20;1.10;;;;;;;;;;5130653;28;20106;-67
2021/01/27 04:45:01;;;;;;;1.45;0.80;;;;;;;;;;5130270;28;20033;-67
2021/01/27 04:47:46;;;;;;;1.58;1.23;;;;;;;;;;5130415;28;20461;-67
2021/01/27 04:50:17;;;;;;;1.35;1.00;;;;;;;;;;5130062;28;20472;-67
2021/01/27 04:52:47;;;;;;;2.05;0.68;;;;;;;;;;5130205;28;20070;-67
2021/01/27 04:55:32;;;;;;;1.40;1.10;;;;;;;;;;5130366;28;20057;-67
2021/01/27 04:58:10;;;;;;;1.38;0.80;;;;;;;;;;5129959;28;20031;-68
2021/01/27 05:00:36;;;;;;;1.02;0.73;;;;;;;;;;5129914;28;20023;-67
2021/01/27 05:03:20;;;;;;;1.10;1.00;;;;;;;;;;5130525;28;20023;-68
2021/01/27 05:05:53;;;;;;;0.70;0.70;;;;;;;;;;5130786;27;20062;-67
2021/01/27 05:08:23;;;;;;;1.90;1.73;;;;;;;;;;5132072;27;20023;-67
2021/01/27 05:10:57;;;;;;;0.70;0.70;;;;;;;;;;5122397;27;20067;-67
2021/01/27 05:13:40;;;;;;;1.38;1.27;;;;;;;;;;5113130;28;20039;-68
2021/01/27 05:16:30;;;;;;;0.60;0.52;;;;;;;;;;5113334;28;20427;-67
2021/01/27 05:18:57;;;;;;;1.30;0.93;;;;;;;;;;5099722;28;20047;-67
2021/01/27 05:21:23;;;;;;;0.98;0.70;;;;;;;;;;5112911;28;20020;-67
2021/01/27 05:23:49;;;;;;;0.50;0.50;;;;;;;;;;5114101;28;20106;-68
2021/01/27 05:26:16;;;;;;;1.15;0.70;;;;;;;;;;5113159;28;20044;-67
2021/01/27 05:28:44;;;;;;;0.85;0.77;;;;;;;;;;5113388;28;20047;-67
2021/01/27 05:31:10;;;;;;;2.70;0.93;;;;;;;;;;5112026;28;20072;-67
2021/01/27 05:33:42;;;;;;;0.73;0.73;;;;;;;;;;5112851;28;20043;-67
2021/01/27 05:36:09;;;;;;;0.93;0.80;;;;;;;;;;5112576;28;20438;-67
2021/01/27 05:38:35;;;;;;;0.77;0.60;;;;;;;;;;5112989;28;20032;-67
2021/01/27 05:41:04;;;;;;;1.15;0.60;;;;;;;;;;5112260;28;20450;-67
2021/01/27 05:43:30;;;;;;;2.03;0.73;;;;;;;;;;5113688;28;20019;-68
2021/01/27 05:46:08;;;;;;;0.50;0.50;;;;;;;;;;5112859;28;20047;-68
2021/01/27 05:48:41;;;;;;;1.50;1.00;;;;;;;;;;5113214;28;20032;-68
2021/01/27 05:51:08;;;;;;;1.20;1.10;;;;;;;;;;5112015;28;20027;-67
2021/01/27 05:53:34;;;;;;;0.68;0.65;;;;;;;;;;5124021;27;20092;-67
2021/01/27 05:56:00;;;;;;;0.90;0.80;;;;;;;;;;5132799;27;20450;-67
2021/01/27 05:58:27;;;;;;;0.88;0.68;;;;;;;;;;5133470;27;20078;-67
2021/01/27 06:01:12;;;;;;;0.80;0.80;;;;;;;;;;5132639;27;20026;-67
2021/01/27 06:03:38;;;;;;;0.60;0.60;;;;;;;;;;5133205;27;20079;-67
2021/01/27 06:06:14;;;;;;;1.27;0.70;;;;;;;;;;5131672;27;20043;-67
2021/01/27 06:08:47;;;;;;;1.13;0.65;;;;;;;;;;5132719;27;20023;-68
2021/01/27 06:11:13;;;;;;;0.75;0.52;;;;;;;;;;5132433;27;20027;-68
2021/01/27 06:13:39;;;;;;;1.15;1.00;;;;;;;;;;5133224;27;20031;-68
2021/01/27 06:16:18;;;;;;;0.75;0.75;;;;;;;;;;5131952;27;20038;-67
2021/01/27 06:18:44;;;;;;;0.52;0.52;;;;;;;;;;5131771;27;20027;-67
2021/01/27 06:21:19;;;;;;;0.65;0.65;;;;;;;;;;5132272;27;20027;-68
2021/01/27 06:24:11;;;;;;;0.75;0.70;;;;;;;;;;5132909;27;20046;-67
2021/01/27 06:26:37;;;;;;;0.60;0.60;;;;;;;;;;5128433;27;20047;-67
2021/01/27 06:29:07;;;;;;;1.38;1.00;;;;;;;;;;5131757;27;20110;-67
2021/01/27 06:31:45;;;;;;;1.70;0.68;;;;;;;;;;5132769;27;20031;-68
2021/01/27 06:34:11;;;;;;;1.90;0.60;;;;;;;;;;5132224;27;20058;-67
2021/01/27 06:36:49;;;;;;;0.88;0.88;;;;;;;;;;5132521;27;20032;-67
2021/01/27 06:39:15;;;;;;;1.27;0.50;;;;;;;;;;5090516;28;20028;-67
2021/01/27 06:41:53;;;;;;;0.93;0.75;;;;;;;;;;5091500;28;20039;-67
2021/01/27 06:44:37;;;;;;;0.90;0.70;;;;;;;;;;5090923;28;20020;-67
2021/01/27 06:47:13;;;;;;;0.70;0.50;;;;;;;;;;5094993;28;20028;-67
2021/01/27 06:49:45;;;;;;;4.03;3.53;;;;;;;;;;5103388;28;20116;-67
2021/01/27 06:52:22;;;;;;;6.55;4.35;;;;;;;;;;5110818;28;20055;-67
2021/01/27 06:55:06;;;;;;;2.17;1.98;;;;;;;;;;5091292;28;20023;-68
2021/01/27 06:57:51;;;;;;;2.03;1.75;;;;;;;;;;5091240;28;20119;-67
2021/01/27 07:00:34;;;;;;;1.80;1.63;;;;;;;;;;5089836;28;20032;-67
2021/01/27 07:03:03;;;;;;;2.17;1.40;;;;;;;;;;5130515;27;20155;-67
2021/01/27 07:05:47;;;;;;;1.63;1.52;;;;;;;;;;5127331;27;20043;-67
2021/01/27 07:08:13;;;;;;;2.45;1.92;;;;;;;;;;5132082;27;20039;-67
2021/01/27 07:10:58;;;;;;;2.22;1.77;;;;;;;;;;5140529;27;20515;-68
2021/01/27 07:13:32;;;;;;;4.10;1.67;;;;;;;;;;5151435;27;20582;-70
2021/01/27 07:16:13;;;;;;;1.38;1.25;;;;;;;;;;5127060;27;20386;-71
2021/01/27 07:18:42;;;;;;;1.75;1.33;;;;;;;;;;5110615;28;20023;-68
2021/01/27 07:21:22;;;;;;;1.48;1.38;;;;;;;;;;5124803;27;20050;-67
2021/01/27 07:23:51;;;;;;;1.00;0.88;;;;;;;;;;5124867;27;20098;-67
2021/01/27 07:26:28;;;;;;;2.05;1.85;;;;;;;;;;5119964;27;20060;-67
2021/01/27 07:29:12;;;;;;;2.55;1.83;;;;;;;;;;5130632;27;20069;-68
2021/01/27 07:31:38;;;;;;;;;;;;;;;;;;5130629;27;20061;-68
2021/01/27 07:34:10;;;;;;;3.97;2.85;;;;;;;;;;5131636;27;19942;-68
2021/01/27 07:36:53;;;;;;;2.92;2.65;;;;;;;;;;5130061;27;20027;-68
2021/01/27 07:39:22;;;;;;;5.00;2.65;;;;;;;;;;5116400;27;20027;-68
2021/01/27 07:41:54;;;;;;;3.78;3.03;;;;;;;;;;5128703;27;20063;-68
2021/01/27 07:44:21;;;;;;;3.80;3.50;;;;;;;;;;5127380;27;20120;-73
2021/01/27 07:46:56;;;;;;;3.17;2.88;;;;;;;;;;5126021;27;20050;-66
2021/01/27 07:49:27;;;;;;;4.32;3.92;;;;;;;;;;5109775;27;20420;-67
2021/01/27 07:52:01;;;;;;;2.60;2.40;;;;;;;;;;5112080;27;20023;-67
2021/01/27 07:54:38;;;;;;;3.88;2.03;;;;;;;;;;5112283;27;20905;-67
2021/01/27 07:57:07;;;;;;;3.55;2.22;;;;;;;;;;5112823;27;20062;-68
2021/01/27 07:59:40;;;;;;;2.65;2.28;;;;;;;;;;5114181;27;20086;-67
2021/01/27 08:02:12;;;;;;;2.72;2.53;;;;;;;;;;5113443;28;20501;-67
2021/01/27 08:04:46;;;;;;;3.22;2.85;;;;;;;;;;5112212;27;20043;-66
2021/01/27 08:07:18;;;;;;;7.18;5.88;;;;;;;;;;5106557;28;20049;-68
2021/01/27 08:09:44;;;;;;;3.85;3.42;;;;;;;;;;5108069;28;20050;-67
2021/01/27 08:12:14;;;;;;;4.20;3.67;;;;;;;;;;5109147;28;20027;-67
2021/01/27 08:15:02;;;;;;;3.95;3.58;;;;;;;;;;5111104;27;20025;-66
2021/01/27 08:17:47;;;;;;;5.57;4.15;;;;;;;;;;5103977;28;20039;-67
2021/01/27 08:20:17;;;;;;;3.65;3.33;;;;;;;;;;5107291;28;20030;-67
2021/01/27 08:22:53;;;;;;;3.08;2.35;;;;;;;;;;5110904;28;20031;-67
2021/01/27 08:25:38;;;;;;;2.92;2.72;;;;;;;;;;5111853;28;20118;-68
2021/01/27 08:28:23;;;;;;;2.70;2.20;;;;;;;;;;5114036;27;20028;-67
2021/01/27 08:31:07;;;;;;;4.47;3.10;;;;;;;;;;5114587;28;20043;-67
2021/01/27 08:33:55;;;;;;;2.78;2.00;;;;;;;;;;5116173;28;20092;-67
2021/01/27 08:36:23;;;;;;;4.75;2.45;;;;;;;;;;5112494;28;20031;-68
2021/01/27 08:38:57;;;;;;;3.30;2.38;;;;;;;;;;5115752;28;20114;-67
2021/01/27 08:41:42;;;;;;;3.20;2.90;;;;;;;;;;5114908;27;20618;-67
2021/01/27 08:44:28;;;;;;;4.95;2.22;;;;;;;;;;5120368;27;20068;-67
2021/01/27 08:46:57;;;;;;;2.55;2.22;;;;;;;;;;5123740;27;20092;-67
2021/01/27 08:49:42;;;;;;;2.08;1.95;;;;;;;;;;5125415;27;20054;-67
2021/01/27 08:52:11;;;;;;;2.55;2.35;;;;;;;;;;5129656;27;20031;-67
2021/01/27 08:54:40;;;;;;;3.58;1.73;;;;;;;;;;5128684;27;20097;-67
2021/01/27 08:57:18;;;;;;;2.00;1.63;;;;;;;;;;5130141;27;20525;-67
2021/01/27 08:59:51;;;;;;;2.70;2.03;;;;;;;;;;5130082;27;20027;-68
2021/01/27 09:02:37;;;;;;;2.15;1.85;;;;;;;;;;5126164;27;20027;-67
2021/01/27 09:05:06;;;;;;;2.15;1.70;;;;;;;;;;5120823;27;20051;-67
2021/01/27 09:07:33;;;;;;;2.13;1.92;;;;;;;;;;5110595;28;20020;-68
2021/01/27 09:10:03;;;;;;;2.33;2.03;;;;;;;;;;5109759;28;20071;-67
2021/01/27 09:12:29;;;;;;;3.15;1.85;;;;;;;;;;5108496;27;20466;-69
2021/01/27 09:14:55;;;;;;;1.63;1.52;;;;;;;;;;5110978;27;20099;-71
2021/01/27 09:17:21;;;;;;;3.95;2.25;;;;;;;;;;5124653;27;20060;-68
2021/01/27 09:19:54;;;;;;;4.15;2.13;;;;;;;;;;5114763;27;20035;-72
2021/01/27 09:22:23;;;;;;;2.50;2.22;;;;;;;;;;5109837;28;20565;-69
2021/01/27 09:24:49;;;;;;;2.42;2.08;;;;;;;;;;5111291;28;20381;-68
2021/01/27 09:27:17;;;;;;;3.22;2.88;;;;;;;;;;5120617;27;20113;-70
2021/01/27 09:29:44;;;;;;;3.17;2.10;;;;;;;;;;5127140;27;20566;-68
2021/01/27 09:32:11;;;;;;;4.38;2.03;;;;;;;;;;5130241;27;20031;-67
2021/01/27 09:34:37;;;;;;;2.90;2.70;;;;;;;;;;5123941;27;20031;-67
2021/01/27 09:37:11;;;;;;;3.25;2.95;;;;;;;;;;5109436;27;20028;-67
2021/01/27 09:39:39;;;;;;;3.92;3.33;;;;;;;;;;5116700;27;20019;-68
2021/01/27 09:42:16;;;;;;;7.18;2.72;;;;;;;;;;5115108;27;20130;-69
2021/01/27 09:44:42;;;;;;;3.10;2.72;;;;;;;;;;5122313;27;20106;-69
2021/01/27 09:47:13;;;;;;;3.22;2.92;;;;;;;;;;5119498;27;20027;-69
2021/01/27 09:49:58;;;;;;;3.53;3.08;;;;;;;;;;5127342;27;20132;-69
2021/01/27 09:52:26;;;;;;;3.75;2.35;;;;;;;;;;5115096;27;20502;-69
2021/01/27 09:54:55;;;;;;;2.53;2.33;;;;;;;;;;5118327;27;20036;-69
2021/01/27 09:57:23;;;;;;;4.43;2.95;;;;;;;;;;5110265;28;20362;-69
2021/01/27 09:59:54;;;;;;;4.03;3.38;;;;;;;;;;5120724;27;20038;-68
2021/01/27 10:02:32;;;;;;;4.07;3.15;;;;;;;;;;5124221;27;20023;-67
2021/01/27 10:04:58;;;;;;;4.50;3.28;;;;;;;;;;5122138;27;20054;-68
2021/01/27 10:07:30;;;;;;;4.05;3.28;;;;;;;;;;5150808;27;20537;-67
2021/01/27 10:10:04;;;;;;;3.05;2.83;;;;;;;;;;5148130;27;20039;-67
2021/01/27 10:12:31;;;;;;;2.97;2.67;;;;;;;;;;5132092;27;20023;-67
2021/01/27 10:15:25;;;;;;;3.25;2.83;;;;;;;;;;5132021;27;20094;-67
2021/01/27 10:18:01;;;;;;;7.63;3.28;;;;;;;;;;5150686;27;20027;-67
2021/01/27 10:20:29;;;;;;;4.35;3.95;;;;;;;;;;5152409;27;20054;-67
2021/01/27 10:23:05;;;;;;;2.47;2.33;;;;;;;;;;5152863;27;20023;-67
2021/01/27 10:25:31;;;;;;;3.67;3.38;;;;;;;;;;5152252;27;20090;-68
2021/01/27 10:28:05;;;;;;;4.28;3.45;;;;;;;;;;5151988;27;20461;-67
2021/01/27 10:30:34;;;;;;;4.03;3.30;;;;;;;;;;5143210;27;20035;-68
2021/01/27 10:33:00;;;;;;;4.55;3.70;;;;;;;;;;5129815;27;20114;-67
2021/01/27 10:35:26;;;;;;;4.90;3.13;;;;;;;;;;5148270;27;20408;-68
2021/01/27 10:37:52;;;;;;;7.55;4.57;;;;;;;;;;5141487;27;20541;-67
2021/01/27 10:40:21;;;;;;;4.85;3.65;;;;;;;;;;5137027;27;20058;-68
2021/01/27 10:42:49;;;;;;;3.90;3.30;;;;;;;;;;5138909;27;20109;-68
2021/01/27 10:45:15;;;;;;;5.68;3.75;;;;;;;;;;5133102;27;20078;-70
2021/01/27 10:47:41;;;;;;;4.05;3.58;;;;;;;;;;5140978;27;20521;-67
2021/01/27 10:50:08;;;;;;;3.72;3.33;;;;;;;;;;5140660;27;20057;-67
2021/01/27 10:52:34;;;;;;;5.63;3.55;;;;;;;;;;5137746;27;20465;-67
2021/01/27 10:55:02;;;;;;;3.42;3.05;;;;;;;;;;5143755;27;20027;-67
2021/01/27 10:57:28;;;;;;;6.18;3.65;;;;;;;;;;5145998;27;20031;-67
2021/01/27 10:59:56;;;;;;;4.60;2.97;;;;;;;;;;5136830;27;20041;-67
2021/01/27 11:02:22;;;;;;;5.28;3.38;;;;;;;;;;5146674;27;20415;-68
2021/01/27 11:04:48;;;;;;;3.13;2.67;;;;;;;;;;5150902;27;20042;-67
2021/01/27 11:07:16;;;;;;;3.88;3.25;;;;;;;;;;5128844;27;20023;-67
2021/01/27 11:09:42;;;;;;;4.35;3.22;;;;;;;;;;5121652;27;20491;-67
2021/01/27 11:12:08;;;;;;;4.50;3.55;;;;;;;;;;5131597;27;20072;-67
2021/01/27 11:14:34;;;;;;;5.43;3.30;;;;;;;;;;5129776;27;20019;-67
2021/01/27 11:17:01;;;;;;;4.25;3.65;;;;;;;;;;5128726;27;20616;-67
2021/01/27 11:19:27;;;;;;;11.52;3.60;;;;;;;;;;5130076;27;20076;-67
2021/01/27 11:21:53;;;;;;;5.00;3.03;;;;;;;;;;5125835;27;20122;-67
2021/01/27 11:24:19;;;;;;;5.10;4.65;;;;;;;;;;5128651;27;20030;-67
2021/01/27 11:26:45;;;;;;;7.18;3.90;;;;;;;;;;5129810;27;20438;-68
2021/01/27 11:29:11;;;;;;;3.50;2.72;;;;;;;;;;5128343;27;20027;-69
2021/01/27 11:31:37;;;;;;;3.83;3.15;;;;;;;;;;5129726;27;20023;-68
2021/01/27 11:34:04;;;;;;;5.15;3.03;;;;;;;;;;5128917;27;20466;-68
2021/01/27 11:36:30;;;;;;;4.28;3.88;;;;;;;;;;5127185;27;20031;-68
2021/01/27 11:38:56;;;;;;;6.60;3.72;;;;;;;;;;5129825;27;20031;-68
2021/01/27 11:41:23;;;;;;;3.90;2.97;;;;;;;;;;5129056;27;20168;-67
2021/01/27 11:43:49;;;;;;;4.78;2.92;;;;;;;;;;5130166;27;20102;-68
2021/01/27 11:46:17;;;;;;;4.03;3.20;;;;;;;;;;5128784;27;20033;-68
2021/01/27 11:48:43;;;;;;;2.72;2.50;;;;;;;;;;5129522;27;20027;-68
2021/01/27 11:51:10;;;;;;;3.47;2.55;;;;;;;;;;5128535;27;20058;-68
2021/01/27 11:53:36;;;;;;;3.75;2.90;;;;;;;;;;5118521;27;20035;-68
2021/01/27 11:56:03;;;;;;;3.33;3.03;;;;;;;;;;5125616;27;20050;-68
2021/01/27 11:58:30;;;;;;;4.25;3.85;;;;;;;;;;5129922;27;20031;-68
2021/01/27 12:00:57;;;;;;;3.47;2.85;;;;;;;;;;5128954;27;20563;-68
2021/01/27 12:03:23;;;;;;;4.55;3.97;;;;;;;;;;5129316;27;20029;-68
2021/01/27 12:05:49;;;;;;;4.47;3.88;;;;;;;;;;5128677;27;20070;-68
2021/01/27 12:08:16;;;;;;;3.40;3.10;;;;;;;;;;5118701;28;20035;-68
2021/01/27 12:10:42;;;;;;;4.75;3.58;;;;;;;;;;5108990;28;20031;-68
2021/01/27 12:13:09;;;;;;;4.07;3.67;;;;;;;;;;5108007;28;20034;-68
2021/01/27 12:15:35;;;;;;;3.55;2.90;;;;;;;;;;5109239;28;20023;-68
2021/01/27 12:18:01;;;;;;;3.80;3.47;;;;;;;;;;5105369;27;20040;-68
2021/01/27 12:20:27;;;;;;;6.20;3.67;;;;;;;;;;5120132;27;20097;-68
2021/01/27 12:22:54;;;;;;;3.40;3.10;;;;;;;;;;5119391;27;20160;-68
2021/01/27 12:25:20;;;;;;;3.53;3.22;;;;;;;;;;5111110;27;20196;-67
2021/01/27 12:27:46;;;;;;;4.60;3.70;;;;;;;;;;5112201;27;20031;-68
2021/01/27 12:30:13;;;;;;;3.90;3.25;;;;;;;;;;5119349;27;20044;-68
2021/01/27 12:32:41;;;;;;;6.85;4.43;;;;;;;;;;5122514;27;20031;-68
2021/01/27 12:35:09;;;;;;;4.30;3.78;;;;;;;;;;5106101;27;20100;-69
2021/01/27 12:37:35;;;;;;;5.90;4.57;;;;;;;;;;5106224;27;20035;-67
2021/01/27 12:40:01;;;;;;;6.57;4.15;;;;;;;;;;5112737;27;20026;-67
2021/01/27 12:42:27;;;;;;;5.60;3.35;;;;;;;;;;5121926;27;20113;-67
2021/01/27 12:44:53;;;;;;;4.15;3.13;;;;;;;;;;5116216;27;20023;-67
2021/01/27 12:47:22;;;;;;;3.83;2.95;;;;;;;;;;5121230;27;20473;-67
2021/01/27 12:49:48;;;;;;;3.70;2.75;;;;;;;;;;5122154;27;20055;-67
2021/01/27 12:52:15;;;;;;;3.72;3.10;;;;;;;;;;5111153;27;20035;-67
2021/01/27 12:54:42;;;;;;;3.85;3.47;;;;;;;;;;5111714;27;20078;-67
2021/01/27 12:57:08;;;;;;;3.08;2.50;;;;;;;;;;5108623;27;20150;-67
2021/01/27 12:59:34;;;;;;;3.25;2.95;;;;;;;;;;5110007;27;20035;-67
2021/01/27 13:02:01;;;;;;;3.47;2.95;;;;;;;;;;5110107;27;20543;-67
2021/01/27 13:04:27;;;;;;;4.25;3.85;;;;;;;;;;5113951;27;20533;-67
2021/01/27 13:06:53;;;;;;;4.22;3.47;;;;;;;;;;5135815;27;20023;-67
2021/01/27 13:09:19;;;;;;;3.10;2.80;;;;;;;;;;5127082;27;20139;-67
2021/01/27 13:11:51;;;;;;;4.78;2.53;;;;;;;;;;5133560;27;20050;-67
2021/01/27 13:14:17;;;;;;;4.35;2.38;;;;;;;;;;5134288;27;20070;-66
2021/01/27 13:16:44;;;;;;;2.67;1.92;;;;;;;;;;5128121;27;20053;-67
2021/01/27 13:19:10;;;;;;;2.75;2.25;;;;;;;;;;5131794;27;20477;-67
2021/01/27 13:21:36;;;;;;;3.08;2.70;;;;;;;;;;5130499;27;20031;-67
2021/01/27 13:24:02;;;;;;;3.20;3.00;;;;;;;;;;5135536;27;20106;-67
2021/01/27 13:26:28;;;;;;;2.20;1.98;;;;;;;;;;5139102;27;20450;-67
2021/01/27 13:28:54;;;;;;;2.83;2.58;;;;;;;;;;5133663;27;20032;-69
2021/01/27 13:31:20;;;;;;;3.10;2.15;;;;;;;;;;5129060;27;20110;-67
2021/01/27 13:33:46;;;;;;;2.10;1.90;;;;;;;;;;5137780;27;20038;-67
2021/01/27 13:36:12;;;;;;;3.65;1.73;;;;;;;;;;5129336;27;20168;-71
2021/01/27 13:38:38;;;;;;;2.55;1.67;;;;;;;;;;5128072;27;20091;-68
2021/01/27 13:41:05;;;;;;;4.22;2.10;;;;;;;;;;5126547;27;20031;-68
2021/01/27 13:43:31;;;;;;;3.15;1.80;;;;;;;;;;5134759;27;20019;-67
2021/01/27 13:45:57;;;;;;;2.13;1.75;;;;;;;;;;5133020;27;20037;-67
2021/01/27 13:48:23;;;;;;;1.95;1.52;;;;;;;;;;5134988;27;20370;-67
2021/01/27 13:50:49;;;;;;;3.58;1.55;;;;;;;;;;5130049;27;20035;-67
2021/01/27 13:53:15;;;;;;;1.73;1.42;;;;;;;;;;5134400;27;20543;-67
2021/01/27 13:55:41;;;;;;;1.63;1.50;;;;;;;;;;5132055;27;20470;-67
2021/01/27 13:58:07;;;;;;;3.13;1.52;;;;;;;;;;5132991;27;20032;-67
2021/01/27 14:00:33;;;;;;;2.85;2.55;;;;;;;;;;5129430;27;20607;-67
2021/01/27 14:03:01;;;;;;;3.30;2.17;;;;;;;;;;5126543;27;20039;-67
2021/01/27 14:05:27;;;;;;;5.15;2.30;;;;;;;;;;5129268;27;20063;-67
2021/01/27 14:07:54;;;;;;;2.30;1.92;;;;;;;;;;5131288;27;20050;-67
2021/01/27 14:10:25;;;;;;;2.08;1.42;;;;;;;;;;5130464;27;20116;-70
2021/01/27 14:12:51;;;;;;;1.63;1.52;;;;;;;;;;5133385;27;20038;-67
2021/01/27 14:15:18;;;;;;;4.50;1.35;;;;;;;;;;5127139;27;20848;-67
2021/01/27 14:17:44;;;;;;;1.60;1.50;;;;;;;;;;5136018;27;20092;-67
2021/01/27 14:20:11;;;;;;;1.23;1.13;;;;;;;;;;5134171;27;20031;-68
2021/01/27 14:22:37;;;;;;;1.77;1.45;;;;;;;;;;5131146;27;20035;-67
2021/01/27 14:25:04;;;;;;;1.27;1.00;;;;;;;;;;5129673;27;20552;-67
2021/01/27 14:27:30;;;;;;;1.63;1.52;;;;;;;;;;5139099;27;20106;-67
2021/01/27 14:29:56;;;;;;;1.65;1.48;;;;;;;;;;5133351;27;20088;-67
2021/01/27 14:32:22;;;;;;;1.60;1.45;;;;;;;;;;5137046;27;20453;-67
2021/01/27 14:34:48;;;;;;;2.17;1.02;;;;;;;;;;5125064;27;20031;-67
2021/01/27 14:37:14;;;;;;;1.40;0.93;;;;;;;;;;5132877;27;20023;-67
2021/01/27 14:39:40;;;;;;;2.75;1.73;;;;;;;;;;5130762;27;20124;-67
2021/01/27 14:42:06;;;;;;;1.98;1.25;;;;;;;;;;5128330;27;20506;-67
2021/01/27 14:44:34;;;;;;;2.97;1.75;;;;;;;;;;5130884;27;20103;-67
2021/01/27 14:47:00;;;;;;;4.03;1.23;;;;;;;;;;5132567;27;20027;-68
2021/01/27 14:49:27;;;;;;;1.92;1.70;;;;;;;;;;5130761;27;20035;-67
2021/01/27 14:51:53;;;;;;;1.83;1.52;;;;;;;;;;5134076;27;20050;-67
2021/01/27 14:54:19;;;;;;;1.98;1.45;;;;;;;;;;5128165;27;20099;-67
2021/01/27 14:56:45;;;;;;;1.73;1.60;;;;;;;;;;5130532;27;20060;-67
2021/01/27 14:59:11;;;;;;;1.48;1.38;;;;;;;;;;5132105;27;20054;-67